Airfield :
LOGIN :

Register | Disclaimer

   EN    FR    IT 

 










Legend :    VFR   Marginal VFR   IFR   Intensive IFR   Very Intensive IFR
Visi :
Ceiling :
>= 8 km
>= 3000ft
5 to 8 km
1000 to 3000 ft
1500m to 5 km
500 to 1000 ft
800 to 1500m
200 to 500 ft
< 800m
< 200 ft
Symbols :   Thunderstorms  Fog  Heavy snow  Heavy precipitations  Wind > 20 kt
SIGMETs :     Misc.  Thunderstorms  Icing  Turbulence  Mountain Waves  Volcanic Ashes







- Airport Elevation : 124 ft
- IATA code : RNS
- Download approach charts


LFRN - Rennes

CURRENT METAR :
  • 181700Z AUTO 12007KT 9999 BKN029 OVC068 05/01 Q1013 NOSIG

EXPIRED METARs :
  • 181630Z AUTO 13009KT CAVOK 06/01 Q1013 NOSIG
  • 181600Z AUTO 13010KT CAVOK 06/01 Q1014 NOSIG
  • 181530Z AUTO 13010KT CAVOK 06/01 Q1014 NOSIG
  • 181500Z AUTO 15010KT CAVOK 07/01 Q1014 NOSIG
  • 181430Z AUTO 14010KT 9999 FEW042 07/01 Q1014 NOSIG

TAF TAF LFRN
Valid from the 18 at 18:00 until the 19 at 18:00 UTC


181700Z 1818/1918 13012KT 9999 BKN025
TEMPO 1820/1902 5000 RA BKN010
BECMG 1900/1902 3000 BR BKN005
BECMG 1912/1914 21008KT 9999 NSW BKN020
TEMPO 1913/1918 5000 SHRA BKN015TCU
ATIS : +33 2 99 67 72 50
No reported NOTAMs for that airfield.



MET'MAP, your aeronautical weather chart ! - Copyright ORBIFLY December 2007 - Disclaimer

ORBIFLY MET'MAP TEAM :

Programming & Development : Alexandra Zaïnal
Concept & Development : Baudouin d'Aumeries
Co-Development & Prog : Marc-Olivier Méhu
Technical & hardware support : Manuel Goepfert

Contact : metmap@orbifly.com




SOURCES & CREDITS :

   NOAA